sensor_id;sensor_type;location;lat;lon;timestamp;P1;durP1;ratioP1;P2;durP2;ratioP2
58864;SDS011;45702;52.982;6.658;2023-07-13T00:00:19;14.88;;;4.40;;
58864;SDS011;45702;52.982;6.658;2023-07-13T00:02:45;16.95;;;4.57;;
58864;SDS011;45702;52.982;6.658;2023-07-13T00:05:11;16.60;;;4.05;;
58864;SDS011;45702;52.982;6.658;2023-07-13T00:07:37;20.75;;;4.53;;
58864;SDS011;45702;52.982;6.658;2023-07-13T00:10:03;20.77;;;4.80;;
58864;SDS011;45702;52.982;6.658;2023-07-13T00:12:30;23.58;;;5.05;;
58864;SDS011;45702;52.982;6.658;2023-07-13T00:14:59;21.02;;;5.32;;
58864;SDS011;45702;52.982;6.658;2023-07-13T00:17:26;28.53;;;4.80;;
58864;SDS011;45702;52.982;6.658;2023-07-13T00:19:52;24.88;;;4.75;;
58864;SDS011;45702;52.982;6.658;2023-07-13T00:22:19;16.77;;;4.70;;
58864;SDS011;45702;52.982;6.658;2023-07-13T00:24:45;14.98;;;4.72;;
58864;SDS011;45702;52.982;6.658;2023-07-13T00:27:10;23.13;;;4.65;;
58864;SDS011;45702;52.982;6.658;2023-07-13T00:29:37;23.48;;;4.75;;
58864;SDS011;45702;52.982;6.658;2023-07-13T00:32:04;18.38;;;4.40;;
58864;SDS011;45702;52.982;6.658;2023-07-13T00:34:30;18.92;;;4.35;;
58864;SDS011;45702;52.982;6.658;2023-07-13T00:36:57;24.85;;;5.13;;
58864;SDS011;45702;52.982;6.658;2023-07-13T00:39:23;22.38;;;4.63;;
58864;SDS011;45702;52.982;6.658;2023-07-13T00:41:49;26.00;;;5.70;;
58864;SDS011;45702;52.982;6.658;2023-07-13T00:44:16;21.77;;;5.20;;
58864;SDS011;45702;52.982;6.658;2023-07-13T00:46:42;27.48;;;5.15;;
58864;SDS011;45702;52.982;6.658;2023-07-13T00:49:09;23.65;;;5.00;;
58864;SDS011;45702;52.982;6.658;2023-07-13T00:51:45;19.35;;;4.95;;
58864;SDS011;45702;52.982;6.658;2023-07-13T00:54:17;18.75;;;4.53;;
58864;SDS011;45702;52.982;6.658;2023-07-13T00:56:48;22.48;;;5.35;;
58864;SDS011;45702;52.982;6.658;2023-07-13T00:59:15;29.33;;;4.85;;
58864;SDS011;45702;52.982;6.658;2023-07-13T01:01:44;19.05;;;4.82;;
58864;SDS011;45702;52.982;6.658;2023-07-13T01:04:10;24.00;;;5.07;;
58864;SDS011;45702;52.982;6.658;2023-07-13T01:06:36;22.90;;;4.85;;
58864;SDS011;45702;52.982;6.658;2023-07-13T01:09:03;21.65;;;4.60;;
58864;SDS011;45702;52.982;6.658;2023-07-13T01:11:30;20.98;;;4.80;;
58864;SDS011;45702;52.982;6.658;2023-07-13T01:13:55;23.88;;;4.47;;
58864;SDS011;45702;52.982;6.658;2023-07-13T01:16:25;18.83;;;5.20;;
58864;SDS011;45702;52.982;6.658;2023-07-13T01:18:54;18.20;;;4.80;;
58864;SDS011;45702;52.982;6.658;2023-07-13T01:21:23;24.30;;;4.70;;
58864;SDS011;45702;52.982;6.658;2023-07-13T01:23:49;18.85;;;5.18;;
58864;SDS011;45702;52.982;6.658;2023-07-13T01:26:15;22.30;;;4.97;;
58864;SDS011;45702;52.982;6.658;2023-07-13T01:28:41;22.73;;;5.43;;
58864;SDS011;45702;52.982;6.658;2023-07-13T01:31:07;21.63;;;5.00;;
58864;SDS011;45702;52.982;6.658;2023-07-13T01:33:36;19.92;;;5.05;;
58864;SDS011;45702;52.982;6.658;2023-07-13T01:36:04;19.38;;;4.53;;
58864;SDS011;45702;52.982;6.658;2023-07-13T01:38:32;23.23;;;5.23;;
58864;SDS011;45702;52.982;6.658;2023-07-13T01:40:59;23.05;;;5.10;;
58864;SDS011;45702;52.982;6.658;2023-07-13T01:43:24;22.67;;;5.28;;
58864;SDS011;45702;52.982;6.658;2023-07-13T01:45:50;24.98;;;5.05;;
58864;SDS011;45702;52.982;6.658;2023-07-13T01:48:16;16.25;;;4.57;;
58864;SDS011;45702;52.982;6.658;2023-07-13T01:50:42;18.25;;;4.38;;
58864;SDS011;45702;52.982;6.658;2023-07-13T01:53:08;18.48;;;4.45;;
58864;SDS011;45702;52.982;6.658;2023-07-13T01:55:34;20.80;;;4.97;;
58864;SDS011;45702;52.982;6.658;2023-07-13T01:58:00;17.15;;;4.45;;
58864;SDS011;45702;52.982;6.658;2023-07-13T02:00:27;16.23;;;4.40;;
58864;SDS011;45702;52.982;6.658;2023-07-13T02:02:53;25.17;;;4.80;;
58864;SDS011;45702;52.982;6.658;2023-07-13T02:05:19;15.00;;;4.82;;
58864;SDS011;45702;52.982;6.658;2023-07-13T02:07:45;19.98;;;4.53;;
58864;SDS011;45702;52.982;6.658;2023-07-13T02:10:11;18.13;;;4.80;;
58864;SDS011;45702;52.982;6.658;2023-07-13T02:12:37;20.70;;;4.93;;
58864;SDS011;45702;52.982;6.658;2023-07-13T02:15:03;19.20;;;4.35;;
58864;SDS011;45702;52.982;6.658;2023-07-13T02:17:30;21.80;;;4.95;;
58864;SDS011;45702;52.982;6.658;2023-07-13T02:19:56;17.42;;;5.00;;
58864;SDS011;45702;52.982;6.658;2023-07-13T02:22:22;19.50;;;4.88;;
58864;SDS011;45702;52.982;6.658;2023-07-13T02:24:48;22.23;;;5.00;;
58864;SDS011;45702;52.982;6.658;2023-07-13T02:27:14;25.88;;;5.28;;
58864;SDS011;45702;52.982;6.658;2023-07-13T02:29:40;18.48;;;5.20;;
58864;SDS011;45702;52.982;6.658;2023-07-13T02:32:06;24.05;;;5.07;;
58864;SDS011;45702;52.982;6.658;2023-07-13T02:34:32;22.02;;;5.50;;
58864;SDS011;45702;52.982;6.658;2023-07-13T02:36:58;17.48;;;5.10;;
58864;SDS011;45702;52.982;6.658;2023-07-13T02:39:24;19.33;;;5.18;;
58864;SDS011;45702;52.982;6.658;2023-07-13T02:41:50;23.70;;;5.07;;
58864;SDS011;45702;52.982;6.658;2023-07-13T02:44:15;27.25;;;5.57;;
58864;SDS011;45702;52.982;6.658;2023-07-13T02:46:41;28.88;;;5.72;;
58864;SDS011;45702;52.982;6.658;2023-07-13T02:49:07;20.02;;;5.30;;
58864;SDS011;45702;52.982;6.658;2023-07-13T02:51:33;24.13;;;6.07;;
58864;SDS011;45702;52.982;6.658;2023-07-13T02:54:00;22.80;;;5.00;;
58864;SDS011;45702;52.982;6.658;2023-07-13T02:56:27;24.85;;;6.10;;
58864;SDS011;45702;52.982;6.658;2023-07-13T02:58:54;23.85;;;5.72;;
58864;SDS011;45702;52.982;6.658;2023-07-13T03:01:20;20.50;;;5.30;;
58864;SDS011;45702;52.982;6.658;2023-07-13T03:03:47;22.70;;;5.68;;
58864;SDS011;45702;52.982;6.658;2023-07-13T03:06:14;22.75;;;5.10;;
58864;SDS011;45702;52.982;6.658;2023-07-13T03:08:41;21.83;;;5.20;;
58864;SDS011;45702;52.982;6.658;2023-07-13T03:11:08;23.42;;;5.50;;
58864;SDS011;45702;52.982;6.658;2023-07-13T03:13:39;23.25;;;5.90;;
58864;SDS011;45702;52.982;6.658;2023-07-13T03:16:06;23.83;;;6.07;;
58864;SDS011;45702;52.982;6.658;2023-07-13T03:18:32;27.58;;;5.63;;
58864;SDS011;45702;52.982;6.658;2023-07-13T03:20:58;21.02;;;5.18;;
58864;SDS011;45702;52.982;6.658;2023-07-13T03:23:23;24.35;;;5.53;;
58864;SDS011;45702;52.982;6.658;2023-07-13T03:25:50;22.73;;;5.38;;
58864;SDS011;45702;52.982;6.658;2023-07-13T03:28:25;23.35;;;5.68;;
58864;SDS011;45702;52.982;6.658;2023-07-13T03:30:58;26.10;;;5.65;;
58864;SDS011;45702;52.982;6.658;2023-07-13T03:33:28;28.27;;;5.80;;
58864;SDS011;45702;52.982;6.658;2023-07-13T03:35:55;22.95;;;5.18;;
58864;SDS011;45702;52.982;6.658;2023-07-13T03:38:21;27.95;;;5.65;;
58864;SDS011;45702;52.982;6.658;2023-07-13T03:40:47;22.23;;;5.50;;
58864;SDS011;45702;52.982;6.658;2023-07-13T03:43:12;25.73;;;5.93;;
58864;SDS011;45702;52.982;6.658;2023-07-13T03:45:38;22.42;;;5.80;;
58864;SDS011;45702;52.982;6.658;2023-07-13T03:48:04;23.95;;;5.15;;
58864;SDS011;45702;52.982;6.658;2023-07-13T03:50:30;20.73;;;5.22;;
58864;SDS011;45702;52.982;6.658;2023-07-13T03:52:57;27.40;;;5.70;;
58864;SDS011;45702;52.982;6.658;2023-07-13T03:55:23;22.60;;;5.90;;
58864;SDS011;45702;52.982;6.658;2023-07-13T03:57:57;21.30;;;5.50;;
58864;SDS011;45702;52.982;6.658;2023-07-13T04:00:25;23.58;;;5.68;;
58864;SDS011;45702;52.982;6.658;2023-07-13T04:02:50;24.48;;;5.60;;
58864;SDS011;45702;52.982;6.658;2023-07-13T04:05:16;28.35;;;5.93;;
58864;SDS011;45702;52.982;6.658;2023-07-13T04:07:42;22.27;;;5.70;;
58864;SDS011;45702;52.982;6.658;2023-07-13T04:10:09;25.00;;;5.40;;
58864;SDS011;45702;52.982;6.658;2023-07-13T04:12:35;29.08;;;5.93;;
58864;SDS011;45702;52.982;6.658;2023-07-13T04:15:01;26.17;;;6.15;;
58864;SDS011;45702;52.982;6.658;2023-07-13T04:17:27;22.38;;;5.55;;
58864;SDS011;45702;52.982;6.658;2023-07-13T04:19:52;32.00;;;5.88;;
58864;SDS011;45702;52.982;6.658;2023-07-13T04:22:18;29.80;;;6.03;;
58864;SDS011;45702;52.982;6.658;2023-07-13T04:24:44;31.95;;;6.13;;
58864;SDS011;45702;52.982;6.658;2023-07-13T04:27:10;26.20;;;6.53;;
58864;SDS011;45702;52.982;6.658;2023-07-13T04:29:35;21.13;;;5.57;;
58864;SDS011;45702;52.982;6.658;2023-07-13T04:32:01;33.75;;;6.15;;
58864;SDS011;45702;52.982;6.658;2023-07-13T04:34:27;26.60;;;5.88;;
58864;SDS011;45702;52.982;6.658;2023-07-13T04:36:53;25.00;;;5.65;;
58864;SDS011;45702;52.982;6.658;2023-07-13T04:39:19;19.08;;;5.55;;
58864;SDS011;45702;52.982;6.658;2023-07-13T04:41:45;25.27;;;6.40;;
58864;SDS011;45702;52.982;6.658;2023-07-13T04:44:11;19.40;;;5.90;;
58864;SDS011;45702;52.982;6.658;2023-07-13T04:46:37;23.50;;;6.07;;
58864;SDS011;45702;52.982;6.658;2023-07-13T04:49:03;26.63;;;6.00;;
58864;SDS011;45702;52.982;6.658;2023-07-13T04:51:29;24.85;;;5.90;;
58864;SDS011;45702;52.982;6.658;2023-07-13T04:53:55;24.92;;;6.20;;
58864;SDS011;45702;52.982;6.658;2023-07-13T04:56:20;24.77;;;6.10;;
58864;SDS011;45702;52.982;6.658;2023-07-13T04:58:46;28.25;;;6.15;;
58864;SDS011;45702;52.982;6.658;2023-07-13T05:01:12;24.08;;;6.25;;
58864;SDS011;45702;52.982;6.658;2023-07-13T05:03:38;22.55;;;5.93;;
58864;SDS011;45702;52.982;6.658;2023-07-13T05:06:05;31.30;;;7.35;;
58864;SDS011;45702;52.982;6.658;2023-07-13T05:08:35;27.75;;;6.30;;
58864;SDS011;45702;52.982;6.658;2023-07-13T05:11:01;20.92;;;5.88;;
58864;SDS011;45702;52.982;6.658;2023-07-13T05:13:28;24.23;;;6.72;;
58864;SDS011;45702;52.982;6.658;2023-07-13T05:15:55;23.50;;;6.10;;
58864;SDS011;45702;52.982;6.658;2023-07-13T05:18:22;29.13;;;6.50;;
58864;SDS011;45702;52.982;6.658;2023-07-13T05:20:54;23.35;;;6.30;;
58864;SDS011;45702;52.982;6.658;2023-07-13T05:23:28;28.95;;;6.40;;
58864;SDS011;45702;52.982;6.658;2023-07-13T05:25:55;24.98;;;5.93;;
58864;SDS011;45702;52.982;6.658;2023-07-13T05:28:21;20.52;;;6.30;;
58864;SDS011;45702;52.982;6.658;2023-07-13T05:30:48;24.80;;;6.15;;
58864;SDS011;45702;52.982;6.658;2023-07-13T05:33:14;31.00;;;6.65;;
58864;SDS011;45702;52.982;6.658;2023-07-13T05:35:40;30.77;;;6.72;;
58864;SDS011;45702;52.982;6.658;2023-07-13T05:38:06;22.58;;;6.07;;
58864;SDS011;45702;52.982;6.658;2023-07-13T05:40:32;26.42;;;6.55;;
58864;SDS011;45702;52.982;6.658;2023-07-13T05:42:58;23.95;;;5.93;;
58864;SDS011;45702;52.982;6.658;2023-07-13T05:45:24;26.13;;;6.63;;
58864;SDS011;45702;52.982;6.658;2023-07-13T05:47:51;22.45;;;6.50;;
58864;SDS011;45702;52.982;6.658;2023-07-13T05:50:16;26.75;;;5.95;;
58864;SDS011;45702;52.982;6.658;2023-07-13T05:52:42;22.90;;;5.93;;
58864;SDS011;45702;52.982;6.658;2023-07-13T05:55:08;29.83;;;6.43;;
58864;SDS011;45702;52.982;6.658;2023-07-13T05:57:34;26.85;;;6.07;;
58864;SDS011;45702;52.982;6.658;2023-07-13T06:00:00;22.00;;;6.63;;
58864;SDS011;45702;52.982;6.658;2023-07-13T06:02:27;22.60;;;5.97;;
58864;SDS011;45702;52.982;6.658;2023-07-13T06:04:53;28.02;;;6.63;;
58864;SDS011;45702;52.982;6.658;2023-07-13T06:07:18;23.75;;;6.03;;
58864;SDS011;45702;52.982;6.658;2023-07-13T06:09:44;25.42;;;6.28;;
58864;SDS011;45702;52.982;6.658;2023-07-13T06:12:10;21.60;;;6.47;;
58864;SDS011;45702;52.982;6.658;2023-07-13T06:14:36;25.67;;;6.72;;
58864;SDS011;45702;52.982;6.658;2023-07-13T06:17:01;23.08;;;6.70;;
58864;SDS011;45702;52.982;6.658;2023-07-13T06:19:28;22.75;;;6.00;;
58864;SDS011;45702;52.982;6.658;2023-07-13T06:21:54;22.55;;;6.55;;
58864;SDS011;45702;52.982;6.658;2023-07-13T06:24:20;27.30;;;6.40;;
58864;SDS011;45702;52.982;6.658;2023-07-13T06:26:45;23.23;;;6.40;;
58864;SDS011;45702;52.982;6.658;2023-07-13T06:29:11;22.13;;;6.40;;
58864;SDS011;45702;52.982;6.658;2023-07-13T06:31:37;19.35;;;6.95;;
58864;SDS011;45702;52.982;6.658;2023-07-13T06:34:03;22.55;;;6.50;;
58864;SDS011;45702;52.982;6.658;2023-07-13T06:36:28;16.80;;;6.10;;
58864;SDS011;45702;52.982;6.658;2023-07-13T06:38:54;22.38;;;6.22;;
58864;SDS011;45702;52.982;6.658;2023-07-13T06:41:20;21.52;;;5.90;;
58864;SDS011;45702;52.982;6.658;2023-07-13T06:43:47;26.15;;;5.80;;
58864;SDS011;45702;52.982;6.658;2023-07-13T06:46:13;23.85;;;5.50;;
58864;SDS011;45702;52.982;6.658;2023-07-13T06:48:38;29.45;;;6.18;;
58864;SDS011;45702;52.982;6.658;2023-07-13T06:51:05;19.23;;;5.43;;
58864;SDS011;45702;52.982;6.658;2023-07-13T06:53:31;19.30;;;5.40;;
58864;SDS011;45702;52.982;6.658;2023-07-13T06:55:57;20.02;;;5.32;;
58864;SDS011;45702;52.982;6.658;2023-07-13T06:58:23;20.20;;;5.57;;
58864;SDS011;45702;52.982;6.658;2023-07-13T07:00:50;19.92;;;5.53;;
58864;SDS011;45702;52.982;6.658;2023-07-13T07:05:43;18.10;;;5.80;;
58864;SDS011;45702;52.982;6.658;2023-07-13T07:08:09;18.40;;;4.82;;
58864;SDS011;45702;52.982;6.658;2023-07-13T07:10:35;19.73;;;4.80;;
58864;SDS011;45702;52.982;6.658;2023-07-13T07:13:01;19.48;;;4.88;;
58864;SDS011;45702;52.982;6.658;2023-07-13T07:15:28;18.05;;;4.90;;
58864;SDS011;45702;52.982;6.658;2023-07-13T07:17:54;17.58;;;4.63;;
58864;SDS011;45702;52.982;6.658;2023-07-13T07:20:20;15.77;;;4.60;;
58864;SDS011;45702;52.982;6.658;2023-07-13T07:22:47;13.15;;;4.53;;
58864;SDS011;45702;52.982;6.658;2023-07-13T07:25:13;12.15;;;4.93;;
58864;SDS011;45702;52.982;6.658;2023-07-13T07:27:39;13.93;;;5.10;;
58864;SDS011;45702;52.982;6.658;2023-07-13T07:30:05;20.67;;;6.30;;
58864;SDS011;45702;52.982;6.658;2023-07-13T07:32:31;15.75;;;6.00;;
58864;SDS011;45702;52.982;6.658;2023-07-13T07:34:58;19.58;;;6.43;;
58864;SDS011;45702;52.982;6.658;2023-07-13T07:37:23;16.58;;;6.00;;
58864;SDS011;45702;52.982;6.658;2023-07-13T07:39:49;16.67;;;5.93;;
58864;SDS011;45702;52.982;6.658;2023-07-13T07:42:15;17.30;;;5.90;;
58864;SDS011;45702;52.982;6.658;2023-07-13T07:44:41;15.10;;;7.07;;
58864;SDS011;45702;52.982;6.658;2023-07-13T07:47:08;14.52;;;5.63;;
58864;SDS011;45702;52.982;6.658;2023-07-13T07:49:34;20.23;;;5.45;;
58864;SDS011;45702;52.982;6.658;2023-07-13T07:52:01;17.90;;;5.70;;
58864;SDS011;45702;52.982;6.658;2023-07-13T07:54:27;19.30;;;5.35;;
58864;SDS011;45702;52.982;6.658;2023-07-13T07:56:53;16.83;;;5.95;;
58864;SDS011;45702;52.982;6.658;2023-07-13T07:59:19;20.48;;;5.63;;
58864;SDS011;45702;52.982;6.658;2023-07-13T08:01:45;20.05;;;7.22;;
58864;SDS011;45702;52.982;6.658;2023-07-13T08:04:13;18.13;;;6.45;;
58864;SDS011;45702;52.982;6.658;2023-07-13T08:06:38;17.20;;;6.55;;
58864;SDS011;45702;52.982;6.658;2023-07-13T08:09:04;13.15;;;6.65;;
58864;SDS011;45702;52.982;6.658;2023-07-13T08:11:31;18.92;;;6.70;;
58864;SDS011;45702;52.982;6.658;2023-07-13T08:13:57;16.02;;;7.38;;
58864;SDS011;45702;52.982;6.658;2023-07-13T08:16:23;24.02;;;8.73;;
58864;SDS011;45702;52.982;6.658;2023-07-13T08:18:49;22.33;;;8.25;;
58864;SDS011;45702;52.982;6.658;2023-07-13T08:21:15;22.48;;;8.02;;
58864;SDS011;45702;52.982;6.658;2023-07-13T08:23:40;23.48;;;7.82;;
58864;SDS011;45702;52.982;6.658;2023-07-13T08:26:07;22.45;;;8.50;;
58864;SDS011;45702;52.982;6.658;2023-07-13T08:28:33;24.98;;;8.05;;
58864;SDS011;45702;52.982;6.658;2023-07-13T08:31:02;28.83;;;8.70;;
58864;SDS011;45702;52.982;6.658;2023-07-13T08:33:29;23.58;;;8.90;;
58864;SDS011;45702;52.982;6.658;2023-07-13T08:35:55;23.30;;;7.97;;
58864;SDS011;45702;52.982;6.658;2023-07-13T08:38:22;22.75;;;8.82;;
58864;SDS011;45702;52.982;6.658;2023-07-13T08:40:52;20.95;;;8.82;;
58864;SDS011;45702;52.982;6.658;2023-07-13T08:43:23;21.70;;;7.53;;
58864;SDS011;45702;52.982;6.658;2023-07-13T08:45:54;16.02;;;7.50;;
58864;SDS011;45702;52.982;6.658;2023-07-13T08:48:34;11.68;;;4.85;;
58864;SDS011;45702;52.982;6.658;2023-07-13T08:51:26;10.55;;;4.32;;
58864;SDS011;45702;52.982;6.658;2023-07-13T08:54:00;10.88;;;4.38;;
58864;SDS011;45702;52.982;6.658;2023-07-13T08:56:29;13.02;;;5.20;;
58864;SDS011;45702;52.982;6.658;2023-07-13T08:58:57;13.52;;;5.03;;
58864;SDS011;45702;52.982;6.658;2023-07-13T09:01:50;8.40;;;3.78;;
58864;SDS011;45702;52.982;6.658;2023-07-13T09:04:37;8.93;;;4.45;;
58864;SDS011;45702;52.982;6.658;2023-07-13T09:10:17;11.07;;;3.88;;
58864;SDS011;45702;52.982;6.658;2023-07-13T09:15:44;11.82;;;4.72;;
58864;SDS011;45702;52.982;6.658;2023-07-13T09:20:38;15.52;;;5.88;;
58864;SDS011;45702;52.982;6.658;2023-07-13T09:23:26;11.10;;;6.25;;
58864;SDS011;45702;52.982;6.658;2023-07-13T09:26:05;13.85;;;6.82;;
58864;SDS011;45702;52.982;6.658;2023-07-13T09:28:43;17.60;;;6.75;;
58864;SDS011;45702;52.982;6.658;2023-07-13T09:31:15;15.88;;;7.10;;
58864;SDS011;45702;52.982;6.658;2023-07-13T09:33:48;14.15;;;7.07;;
58864;SDS011;45702;52.982;6.658;2023-07-13T09:36:23;27.02;;;7.40;;
58864;SDS011;45702;52.982;6.658;2023-07-13T09:44:13;23.40;;;8.23;;
58864;SDS011;45702;52.982;6.658;2023-07-13T09:46:45;18.08;;;7.18;;
58864;SDS011;45702;52.982;6.658;2023-07-13T09:49:17;11.68;;;5.85;;
58864;SDS011;45702;52.982;6.658;2023-07-13T09:51:43;15.07;;;5.32;;
58864;SDS011;45702;52.982;6.658;2023-07-13T09:54:24;8.60;;;4.40;;
58864;SDS011;45702;52.982;6.658;2023-07-13T09:56:54;10.60;;;4.90;;
58864;SDS011;45702;52.982;6.658;2023-07-13T09:59:21;8.52;;;4.00;;
58864;SDS011;45702;52.982;6.658;2023-07-13T10:01:49;12.65;;;5.07;;
58864;SDS011;45702;52.982;6.658;2023-07-13T10:04:19;6.75;;;4.15;;
58864;SDS011;45702;52.982;6.658;2023-07-13T10:07:08;9.88;;;4.10;;
58864;SDS011;45702;52.982;6.658;2023-07-13T10:09:38;8.52;;;4.35;;
58864;SDS011;45702;52.982;6.658;2023-07-13T10:12:05;8.77;;;4.13;;
58864;SDS011;45702;52.982;6.658;2023-07-13T10:14:42;7.82;;;4.22;;
58864;SDS011;45702;52.982;6.658;2023-07-13T10:17:10;12.32;;;4.40;;
58864;SDS011;45702;52.982;6.658;2023-07-13T10:19:39;6.75;;;4.00;;
58864;SDS011;45702;52.982;6.658;2023-07-13T10:22:20;11.80;;;4.40;;
58864;SDS011;45702;52.982;6.658;2023-07-13T10:24:52;9.65;;;3.60;;
58864;SDS011;45702;52.982;6.658;2023-07-13T10:27:29;6.72;;;3.63;;
58864;SDS011;45702;52.982;6.658;2023-07-13T10:32:39;9.55;;;3.50;;
58864;SDS011;45702;52.982;6.658;2023-07-13T10:35:05;5.38;;;3.00;;
58864;SDS011;45702;52.982;6.658;2023-07-13T10:40:19;8.10;;;3.40;;
58864;SDS011;45702;52.982;6.658;2023-07-13T10:42:51;7.70;;;3.33;;
58864;SDS011;45702;52.982;6.658;2023-07-13T10:45:20;7.65;;;3.95;;
58864;SDS011;45702;52.982;6.658;2023-07-13T10:47:48;13.80;;;5.22;;
58864;SDS011;45702;52.982;6.658;2023-07-13T10:50:25;14.68;;;5.45;;
58864;SDS011;45702;52.982;6.658;2023-07-13T10:53:01;22.45;;;7.30;;
58864;SDS011;45702;52.982;6.658;2023-07-13T10:58:11;13.70;;;5.45;;
58864;SDS011;45702;52.982;6.658;2023-07-13T11:03:53;11.93;;;6.07;;
58864;SDS011;45702;52.982;6.658;2023-07-13T11:09:18;15.80;;;7.45;;
58864;SDS011;45702;52.982;6.658;2023-07-13T11:11:44;13.90;;;7.45;;
58864;SDS011;45702;52.982;6.658;2023-07-13T11:14:30;15.65;;;6.10;;
58864;SDS011;45702;52.982;6.658;2023-07-13T11:16:56;11.77;;;7.10;;
58864;SDS011;45702;52.982;6.658;2023-07-13T11:24:50;13.57;;;5.53;;
58864;SDS011;45702;52.982;6.658;2023-07-13T11:29:52;9.88;;;5.20;;
58864;SDS011;45702;52.982;6.658;2023-07-13T11:32:31;11.38;;;4.63;;
58864;SDS011;45702;52.982;6.658;2023-07-13T11:34:57;8.00;;;4.05;;
58864;SDS011;45702;52.982;6.658;2023-07-13T11:37:23;12.15;;;4.45;;
58864;SDS011;45702;52.982;6.658;2023-07-13T11:39:50;9.95;;;4.13;;
58864;SDS011;45702;52.982;6.658;2023-07-13T11:42:18;10.60;;;4.38;;
58864;SDS011;45702;52.982;6.658;2023-07-13T11:44:50;10.77;;;3.83;;
58864;SDS011;45702;52.982;6.658;2023-07-13T11:47:17;11.48;;;4.22;;
58864;SDS011;45702;52.982;6.658;2023-07-13T11:49:50;9.32;;;4.03;;
58864;SDS011;45702;52.982;6.658;2023-07-13T11:52:22;8.73;;;3.80;;
58864;SDS011;45702;52.982;6.658;2023-07-13T11:54:54;10.63;;;3.70;;
58864;SDS011;45702;52.982;6.658;2023-07-13T11:57:33;6.97;;;3.50;;
58864;SDS011;45702;52.982;6.658;2023-07-13T12:00:09;7.50;;;3.40;;
58864;SDS011;45702;52.982;6.658;2023-07-13T12:02:44;8.95;;;3.35;;
58864;SDS011;45702;52.982;6.658;2023-07-13T12:05:14;6.20;;;2.90;;
58864;SDS011;45702;52.982;6.658;2023-07-13T12:07:46;7.15;;;2.58;;
58864;SDS011;45702;52.982;6.658;2023-07-13T12:12:47;5.13;;;2.65;;
58864;SDS011;45702;52.982;6.658;2023-07-13T12:18:15;7.07;;;2.80;;
58864;SDS011;45702;52.982;6.658;2023-07-13T12:20:44;9.35;;;2.70;;
58864;SDS011;45702;52.982;6.658;2023-07-13T12:23:21;10.40;;;2.50;;
58864;SDS011;45702;52.982;6.658;2023-07-13T12:25:56;6.93;;;2.65;;
58864;SDS011;45702;52.982;6.658;2023-07-13T12:30:59;11.25;;;2.83;;
58864;SDS011;45702;52.982;6.658;2023-07-13T12:33:29;7.13;;;2.58;;
58864;SDS011;45702;52.982;6.658;2023-07-13T12:35:57;7.03;;;2.42;;
58864;SDS011;45702;52.982;6.658;2023-07-13T12:38:27;6.05;;;2.28;;
58864;SDS011;45702;52.982;6.658;2023-07-13T12:40:55;7.87;;;2.40;;
58864;SDS011;45702;52.982;6.658;2023-07-13T12:43:21;6.68;;;2.42;;
58864;SDS011;45702;52.982;6.658;2023-07-13T12:45:55;7.77;;;2.53;;
58864;SDS011;45702;52.982;6.658;2023-07-13T12:48:26;9.82;;;2.70;;
58864;SDS011;45702;52.982;6.658;2023-07-13T12:50:53;8.13;;;2.38;;
58864;SDS011;45702;52.982;6.658;2023-07-13T12:53:24;8.23;;;2.50;;
58864;SDS011;45702;52.982;6.658;2023-07-13T12:55:56;8.80;;;2.40;;
58864;SDS011;45702;52.982;6.658;2023-07-13T12:58:31;9.73;;;2.30;;
58864;SDS011;45702;52.982;6.658;2023-07-13T13:01:02;7.70;;;2.10;;
58864;SDS011;45702;52.982;6.658;2023-07-13T13:03:31;8.10;;;2.50;;
58864;SDS011;45702;52.982;6.658;2023-07-13T13:06:06;7.63;;;1.92;;
58864;SDS011;45702;52.982;6.658;2023-07-13T13:08:43;7.32;;;2.35;;
58864;SDS011;45702;52.982;6.658;2023-07-13T13:11:20;9.82;;;2.85;;
58864;SDS011;45702;52.982;6.658;2023-07-13T13:13:48;9.10;;;2.30;;
58864;SDS011;45702;52.982;6.658;2023-07-13T13:16:23;7.68;;;2.20;;
58864;SDS011;45702;52.982;6.658;2023-07-13T13:18:52;6.22;;;2.40;;
58864;SDS011;45702;52.982;6.658;2023-07-13T13:21:20;8.18;;;2.55;;
58864;SDS011;45702;52.982;6.658;2023-07-13T13:23:47;8.15;;;2.10;;
58864;SDS011;45702;52.982;6.658;2023-07-13T13:26:15;7.22;;;2.85;;
58864;SDS011;45702;52.982;6.658;2023-07-13T13:28:41;8.50;;;2.20;;
58864;SDS011;45702;52.982;6.658;2023-07-13T13:31:09;5.28;;;2.10;;
58864;SDS011;45702;52.982;6.658;2023-07-13T13:36:12;6.97;;;2.17;;
58864;SDS011;45702;52.982;6.658;2023-07-13T13:38:43;6.78;;;2.15;;
58864;SDS011;45702;52.982;6.658;2023-07-13T13:41:09;4.65;;;2.17;;
58864;SDS011;45702;52.982;6.658;2023-07-13T13:43:38;7.07;;;2.28;;
58864;SDS011;45702;52.982;6.658;2023-07-13T13:46:09;8.05;;;2.17;;
58864;SDS011;45702;52.982;6.658;2023-07-13T13:48:39;5.85;;;2.05;;
58864;SDS011;45702;52.982;6.658;2023-07-13T13:51:12;5.82;;;1.95;;
58864;SDS011;45702;52.982;6.658;2023-07-13T13:53:45;7.60;;;2.00;;
58864;SDS011;45702;52.982;6.658;2023-07-13T13:56:12;6.47;;;1.83;;
58864;SDS011;45702;52.982;6.658;2023-07-13T13:58:39;7.50;;;2.00;;
58864;SDS011;45702;52.982;6.658;2023-07-13T14:01:10;6.75;;;2.33;;
58864;SDS011;45702;52.982;6.658;2023-07-13T14:03:48;10.73;;;2.30;;
58864;SDS011;45702;52.982;6.658;2023-07-13T14:08:42;3.92;;;1.85;;
58864;SDS011;45702;52.982;6.658;2023-07-13T14:11:15;7.95;;;2.00;;
58864;SDS011;45702;52.982;6.658;2023-07-13T14:13:54;7.30;;;2.00;;
58864;SDS011;45702;52.982;6.658;2023-07-13T14:16:21;6.78;;;2.00;;
58864;SDS011;45702;52.982;6.658;2023-07-13T14:18:53;6.90;;;2.10;;
58864;SDS011;45702;52.982;6.658;2023-07-13T14:21:21;4.70;;;2.10;;
58864;SDS011;45702;52.982;6.658;2023-07-13T14:23:48;14.38;;;2.33;;
58864;SDS011;45702;52.982;6.658;2023-07-13T14:26:17;5.00;;;1.90;;
58864;SDS011;45702;52.982;6.658;2023-07-13T14:28:45;7.25;;;2.05;;
58864;SDS011;45702;52.982;6.658;2023-07-13T14:31:14;7.78;;;2.20;;
58864;SDS011;45702;52.982;6.658;2023-07-13T14:33:41;9.98;;;2.20;;
58864;SDS011;45702;52.982;6.658;2023-07-13T14:38:48;5.88;;;2.10;;
58864;SDS011;45702;52.982;6.658;2023-07-13T14:41:15;8.80;;;2.10;;
58864;SDS011;45702;52.982;6.658;2023-07-13T14:43:41;8.32;;;2.05;;
58864;SDS011;45702;52.982;6.658;2023-07-13T14:46:07;7.35;;;2.42;;
58864;SDS011;45702;52.982;6.658;2023-07-13T14:51:10;6.45;;;2.00;;
58864;SDS011;45702;52.982;6.658;2023-07-13T14:53:36;6.13;;;2.00;;
58864;SDS011;45702;52.982;6.658;2023-07-13T14:56:09;11.55;;;2.05;;
58864;SDS011;45702;52.982;6.658;2023-07-13T14:58:38;5.40;;;2.00;;
58864;SDS011;45702;52.982;6.658;2023-07-13T15:01:09;11.65;;;3.00;;
58864;SDS011;45702;52.982;6.658;2023-07-13T15:03:39;7.85;;;2.10;;
58864;SDS011;45702;52.982;6.658;2023-07-13T15:06:10;6.25;;;1.98;;
58864;SDS011;45702;52.982;6.658;2023-07-13T15:08:37;7.18;;;1.77;;
58864;SDS011;45702;52.982;6.658;2023-07-13T15:11:03;6.28;;;2.05;;
58864;SDS011;45702;52.982;6.658;2023-07-13T15:13:30;6.30;;;1.83;;
58864;SDS011;45702;52.982;6.658;2023-07-13T15:15:55;4.72;;;1.80;;
58864;SDS011;45702;52.982;6.658;2023-07-13T15:18:22;9.48;;;2.17;;
58864;SDS011;45702;52.982;6.658;2023-07-13T15:20:50;7.07;;;1.83;;
58864;SDS011;45702;52.982;6.658;2023-07-13T15:23:20;4.78;;;1.73;;
58864;SDS011;45702;52.982;6.658;2023-07-13T15:25:47;7.00;;;2.03;;
58864;SDS011;45702;52.982;6.658;2023-07-13T15:28:14;7.07;;;1.98;;
58864;SDS011;45702;52.982;6.658;2023-07-13T15:30:44;4.90;;;1.83;;
58864;SDS011;45702;52.982;6.658;2023-07-13T15:33:16;8.25;;;2.38;;
58864;SDS011;45702;52.982;6.658;2023-07-13T15:35:42;6.75;;;1.90;;
58864;SDS011;45702;52.982;6.658;2023-07-13T15:38:17;10.87;;;1.80;;
58864;SDS011;45702;52.982;6.658;2023-07-13T15:40:46;6.13;;;1.80;;